sensor_id;sensor_type;location;lat;lon;timestamp;P1;durP1;ratioP1;P2;durP2;ratioP2
61570;SDS011;47463;49.884;10.010;2023-12-14T00:00:00;10.6;;;4;;
61570;SDS011;47463;49.884;10.010;2023-12-14T00:05:00;12;;;4.7;;
61570;SDS011;47463;49.884;10.010;2023-12-14T00:10:00;16.5;;;6.4;;
61570;SDS011;47463;49.884;10.010;2023-12-14T00:15:00;12.9;;;5.3;;
61570;SDS011;47463;49.884;10.010;2023-12-14T00:20:00;12.9;;;5.3;;
61570;SDS011;47463;49.884;10.010;2023-12-14T00:25:00;16.7;;;5;;
61570;SDS011;47463;49.884;10.010;2023-12-14T00:30:00;6.7;;;4;;
61570;SDS011;47463;49.884;10.010;2023-12-14T00:35:00;9.3;;;3.7;;
61570;SDS011;47463;49.884;10.010;2023-12-14T00:40:00;10.2;;;6.5;;
61570;SDS011;47463;49.884;10.010;2023-12-14T00:45:00;13.2;;;6.5;;
61570;SDS011;47463;49.884;10.010;2023-12-14T00:50:00;13.2;;;6.5;;
61570;SDS011;47463;49.884;10.010;2023-12-14T00:55:00;11.6;;;6.1;;
61570;SDS011;47463;49.884;10.010;2023-12-14T01:00:00;11.9;;;5.2;;
61570;SDS011;47463;49.884;10.010;2023-12-14T01:05:00;15.5;;;8.8;;
61570;SDS011;47463;49.884;10.010;2023-12-14T01:10:00;18.5;;;9.6;;
61570;SDS011;47463;49.884;10.010;2023-12-14T01:15:00;18.5;;;10.8;;
61570;SDS011;47463;49.884;10.010;2023-12-14T01:20:00;18.5;;;10.8;;
61570;SDS011;47463;49.884;10.010;2023-12-14T01:25:00;22.6;;;11.7;;
61570;SDS011;47463;49.884;10.010;2023-12-14T01:30:00;16.6;;;9.6;;
61570;SDS011;47463;49.884;10.010;2023-12-14T01:35:00;22.9;;;9.9;;
61570;SDS011;47463;49.884;10.010;2023-12-14T01:40:00;21.7;;;10.1;;
61570;SDS011;47463;49.884;10.010;2023-12-14T01:45:00;28.7;;;12.8;;
61570;SDS011;47463;49.884;10.010;2023-12-14T01:50:00;28.7;;;12.8;;
61570;SDS011;47463;49.884;10.010;2023-12-14T01:55:00;21;;;12;;
61570;SDS011;47463;49.884;10.010;2023-12-14T02:00:00;20.8;;;12.2;;
61570;SDS011;47463;49.884;10.010;2023-12-14T02:05:00;17.6;;;11.5;;
61570;SDS011;47463;49.884;10.010;2023-12-14T02:10:00;19.1;;;12.1;;
61570;SDS011;47463;49.884;10.010;2023-12-14T02:15:00;16.1;;;10.3;;
61570;SDS011;47463;49.884;10.010;2023-12-14T02:20:00;16.1;;;10.3;;
61570;SDS011;47463;49.884;10.010;2023-12-14T02:25:00;23.1;;;13.3;;
61570;SDS011;47463;49.884;10.010;2023-12-14T02:30:00;18;;;11;;
61570;SDS011;47463;49.884;10.010;2023-12-14T02:35:00;18.7;;;9.1;;
61570;SDS011;47463;49.884;10.010;2023-12-14T02:40:00;20.4;;;10.7;;
61570;SDS011;47463;49.884;10.010;2023-12-14T02:45:00;22.9;;;13;;
61570;SDS011;47463;49.884;10.010;2023-12-14T02:50:00;22.9;;;13;;
61570;SDS011;47463;49.884;10.010;2023-12-14T02:55:00;23.8;;;14.2;;
61570;SDS011;47463;49.884;10.010;2023-12-14T03:00:00;21.5;;;13.3;;
61570;SDS011;47463;49.884;10.010;2023-12-14T03:05:00;24.8;;;14.4;;
61570;SDS011;47463;49.884;10.010;2023-12-14T03:10:00;20.5;;;13.5;;
61570;SDS011;47463;49.884;10.010;2023-12-14T03:15:00;19.5;;;12.1;;
61570;SDS011;47463;49.884;10.010;2023-12-14T03:20:00;19.5;;;12.1;;
61570;SDS011;47463;49.884;10.010;2023-12-14T03:25:00;23.9;;;12.6;;
61570;SDS011;47463;49.884;10.010;2023-12-14T03:30:00;25.2;;;11.2;;
61570;SDS011;47463;49.884;10.010;2023-12-14T03:35:00;20.1;;;11.1;;
61570;SDS011;47463;49.884;10.010;2023-12-14T03:40:00;19.8;;;11.7;;
61570;SDS011;47463;49.884;10.010;2023-12-14T03:45:00;23.1;;;12.5;;
61570;SDS011;47463;49.884;10.010;2023-12-14T03:50:00;23.1;;;12.5;;
61570;SDS011;47463;49.884;10.010;2023-12-14T03:55:00;22.7;;;11.2;;
61570;SDS011;47463;49.884;10.010;2023-12-14T04:00:00;26.4;;;11.7;;
61570;SDS011;47463;49.884;10.010;2023-12-14T04:05:00;20.9;;;11.5;;
61570;SDS011;47463;49.884;10.010;2023-12-14T04:10:00;24.5;;;12.6;;
61570;SDS011;47463;49.884;10.010;2023-12-14T04:15:00;21.5;;;12;;
61570;SDS011;47463;49.884;10.010;2023-12-14T04:20:00;21.5;;;12;;
61570;SDS011;47463;49.884;10.010;2023-12-14T04:25:00;34.4;;;15.4;;
61570;SDS011;47463;49.884;10.010;2023-12-14T04:30:00;32.2;;;13.4;;
61570;SDS011;47463;49.884;10.010;2023-12-14T04:35:00;26.1;;;12.2;;
61570;SDS011;47463;49.884;10.010;2023-12-14T04:40:00;23.3;;;10.9;;
61570;SDS011;47463;49.884;10.010;2023-12-14T04:45:00;20.7;;;10.9;;
61570;SDS011;47463;49.884;10.010;2023-12-14T04:50:00;20.7;;;10.9;;
61570;SDS011;47463;49.884;10.010;2023-12-14T04:55:00;21.4;;;10.9;;
61570;SDS011;47463;49.884;10.010;2023-12-14T05:00:00;21.8;;;9.7;;
61570;SDS011;47463;49.884;10.010;2023-12-14T05:05:00;19.9;;;10.9;;
61570;SDS011;47463;49.884;10.010;2023-12-14T05:10:00;24.3;;;11.4;;
61570;SDS011;47463;49.884;10.010;2023-12-14T05:15:00;24.3;;;11.7;;
61570;SDS011;47463;49.884;10.010;2023-12-14T05:20:00;24.3;;;11.7;;
61570;SDS011;47463;49.884;10.010;2023-12-14T05:25:00;22.2;;;10.3;;
61570;SDS011;47463;49.884;10.010;2023-12-14T05:30:00;25.4;;;11.8;;
61570;SDS011;47463;49.884;10.010;2023-12-14T05:35:00;30.7;;;13.1;;
61570;SDS011;47463;49.884;10.010;2023-12-14T05:40:00;28.6;;;13.6;;
61570;SDS011;47463;49.884;10.010;2023-12-14T05:45:00;25.5;;;12.8;;
61570;SDS011;47463;49.884;10.010;2023-12-14T05:50:00;25.5;;;12.8;;
61570;SDS011;47463;49.884;10.010;2023-12-14T05:55:00;31.1;;;14.2;;
61570;SDS011;47463;49.884;10.010;2023-12-14T06:00:00;34.7;;;14.1;;
61570;SDS011;47463;49.884;10.010;2023-12-14T06:05:00;27.6;;;12.4;;
61570;SDS011;47463;49.884;10.010;2023-12-14T06:10:00;33.6;;;14.6;;
61570;SDS011;47463;49.884;10.010;2023-12-14T06:15:00;41.3;;;15.7;;
61570;SDS011;47463;49.884;10.010;2023-12-14T06:20:00;41.3;;;15.7;;
61570;SDS011;47463;49.884;10.010;2023-12-14T06:25:00;41.6;;;16.1;;
61570;SDS011;47463;49.884;10.010;2023-12-14T06:30:00;32.6;;;15;;
61570;SDS011;47463;49.884;10.010;2023-12-14T06:35:00;35.7;;;15.7;;
61570;SDS011;47463;49.884;10.010;2023-12-14T06:40:00;32.4;;;14.4;;
61570;SDS011;47463;49.884;10.010;2023-12-14T06:45:01;40.2;;;15.8;;
61570;SDS011;47463;49.884;10.010;2023-12-14T06:50:00;40.2;;;15.8;;
61570;SDS011;47463;49.884;10.010;2023-12-14T06:55:00;38.4;;;16.4;;
61570;SDS011;47463;49.884;10.010;2023-12-14T07:00:00;39.9;;;16.8;;
61570;SDS011;47463;49.884;10.010;2023-12-14T07:05:00;36.8;;;16.8;;
61570;SDS011;47463;49.884;10.010;2023-12-14T07:10:00;49.4;;;20.4;;
61570;SDS011;47463;49.884;10.010;2023-12-14T07:15:00;41.4;;;19.1;;
61570;SDS011;47463;49.884;10.010;2023-12-14T07:20:00;41.4;;;19.1;;
61570;SDS011;47463;49.884;10.010;2023-12-14T07:25:00;44.9;;;18;;
61570;SDS011;47463;49.884;10.010;2023-12-14T07:30:00;40.4;;;17.3;;
61570;SDS011;47463;49.884;10.010;2023-12-14T07:35:00;36.3;;;16.8;;
61570;SDS011;47463;49.884;10.010;2023-12-14T07:40:00;37.9;;;17.1;;
61570;SDS011;47463;49.884;10.010;2023-12-14T07:45:00;53.9;;;18.7;;
61570;SDS011;47463;49.884;10.010;2023-12-14T07:50:00;53.9;;;18.7;;
61570;SDS011;47463;49.884;10.010;2023-12-14T07:55:00;43.3;;;18.1;;
61570;SDS011;47463;49.884;10.010;2023-12-14T08:00:00;42.5;;;17.4;;
61570;SDS011;47463;49.884;10.010;2023-12-14T08:05:00;36.8;;;15.7;;
61570;SDS011;47463;49.884;10.010;2023-12-14T08:10:00;38.3;;;17.3;;
61570;SDS011;47463;49.884;10.010;2023-12-14T08:15:00;54.6;;;20;;
61570;SDS011;47463;49.884;10.010;2023-12-14T08:20:00;54.6;;;20;;
61570;SDS011;47463;49.884;10.010;2023-12-14T08:25:00;36.6;;;15.9;;
61570;SDS011;47463;49.884;10.010;2023-12-14T08:30:00;41;;;17;;
61570;SDS011;47463;49.884;10.010;2023-12-14T08:35:00;39.7;;;18;;
61570;SDS011;47463;49.884;10.010;2023-12-14T08:40:00;37.5;;;17.7;;
61570;SDS011;47463;49.884;10.010;2023-12-14T08:45:00;42;;;17.6;;
61570;SDS011;47463;49.884;10.010;2023-12-14T08:50:00;42;;;17.6;;
61570;SDS011;47463;49.884;10.010;2023-12-14T08:55:00;44.6;;;18;;
61570;SDS011;47463;49.884;10.010;2023-12-14T09:00:00;44.6;;;19;;
61570;SDS011;47463;49.884;10.010;2023-12-14T09:05:00;42.9;;;20;;
61570;SDS011;47463;49.884;10.010;2023-12-14T09:10:00;43;;;16.6;;
61570;SDS011;47463;49.884;10.010;2023-12-14T09:15:00;43.7;;;16.3;;
61570;SDS011;47463;49.884;10.010;2023-12-14T09:20:00;43.7;;;16.3;;
61570;SDS011;47463;49.884;10.010;2023-12-14T09:25:00;40.9;;;15.7;;
61570;SDS011;47463;49.884;10.010;2023-12-14T09:30:00;40.6;;;15;;
61570;SDS011;47463;49.884;10.010;2023-12-14T09:35:00;42;;;15.8;;
61570;SDS011;47463;49.884;10.010;2023-12-14T09:40:00;35;;;13.9;;
61570;SDS011;47463;49.884;10.010;2023-12-14T09:45:00;39.7;;;14.4;;
61570;SDS011;47463;49.884;10.010;2023-12-14T09:50:00;39.7;;;14.4;;
61570;SDS011;47463;49.884;10.010;2023-12-14T09:55:00;32.7;;;13.6;;
61570;SDS011;47463;49.884;10.010;2023-12-14T10:00:00;52.5;;;14.7;;
61570;SDS011;47463;49.884;10.010;2023-12-14T10:05:00;48.8;;;14.6;;
61570;SDS011;47463;49.884;10.010;2023-12-14T10:10:09;38.8;;;13.7;;
61570;SDS011;47463;49.884;10.010;2023-12-14T10:15:00;36;;;14.6;;
61570;SDS011;47463;49.884;10.010;2023-12-14T10:20:00;36;;;14.6;;
61570;SDS011;47463;49.884;10.010;2023-12-14T10:25:00;40.5;;;15.5;;
61570;SDS011;47463;49.884;10.010;2023-12-14T10:30:00;45.2;;;14.8;;
61570;SDS011;47463;49.884;10.010;2023-12-14T10:35:00;36.8;;;15.4;;
61570;SDS011;47463;49.884;10.010;2023-12-14T10:40:00;43.3;;;16.4;;
61570;SDS011;47463;49.884;10.010;2023-12-14T10:45:00;38.4;;;15;;
61570;SDS011;47463;49.884;10.010;2023-12-14T10:50:00;38.4;;;15;;
61570;SDS011;47463;49.884;10.010;2023-12-14T10:55:00;36.9;;;14.8;;
61570;SDS011;47463;49.884;10.010;2023-12-14T11:00:00;33.9;;;14.3;;
61570;SDS011;47463;49.884;10.010;2023-12-14T11:05:00;43.5;;;14.1;;
61570;SDS011;47463;49.884;10.010;2023-12-14T11:10:00;42.6;;;15.6;;
61570;SDS011;47463;49.884;10.010;2023-12-14T11:15:00;32.2;;;14;;
61570;SDS011;47463;49.884;10.010;2023-12-14T11:20:03;32.2;;;14;;
61570;SDS011;47463;49.884;10.010;2023-12-14T11:25:00;32;;;15;;
61570;SDS011;47463;49.884;10.010;2023-12-14T11:30:00;30.9;;;13.5;;
61570;SDS011;47463;49.884;10.010;2023-12-14T11:35:00;32.5;;;15.6;;
61570;SDS011;47463;49.884;10.010;2023-12-14T11:40:00;33.9;;;15.8;;
61570;SDS011;47463;49.884;10.010;2023-12-14T11:45:00;31;;;14.3;;
61570;SDS011;47463;49.884;10.010;2023-12-14T11:50:00;31;;;14.3;;
61570;SDS011;47463;49.884;10.010;2023-12-14T11:55:00;54.6;;;18.7;;
61570;SDS011;47463;49.884;10.010;2023-12-14T12:00:00;42;;;16.3;;
61570;SDS011;47463;49.884;10.010;2023-12-14T12:05:00;39.3;;;16.8;;
61570;SDS011;47463;49.884;10.010;2023-12-14T12:10:00;41.9;;;18;;
61570;SDS011;47463;49.884;10.010;2023-12-14T12:15:00;42.1;;;17.6;;
61570;SDS011;47463;49.884;10.010;2023-12-14T12:20:00;42.1;;;17.6;;
61570;SDS011;47463;49.884;10.010;2023-12-14T12:25:00;40.1;;;16.4;;
61570;SDS011;47463;49.884;10.010;2023-12-14T12:30:00;47.4;;;17.8;;
61570;SDS011;47463;49.884;10.010;2023-12-14T12:35:00;28.9;;;14.2;;
61570;SDS011;47463;49.884;10.010;2023-12-14T12:40:00;31.5;;;14.2;;
61570;SDS011;47463;49.884;10.010;2023-12-14T12:45:00;25.8;;;13.3;;
61570;SDS011;47463;49.884;10.010;2023-12-14T12:50:00;25.8;;;13.3;;
61570;SDS011;47463;49.884;10.010;2023-12-14T12:55:00;27.9;;;14.2;;
61570;SDS011;47463;49.884;10.010;2023-12-14T13:00:00;29.5;;;15.6;;
61570;SDS011;47463;49.884;10.010;2023-12-14T13:05:00;27.5;;;13.9;;
61570;SDS011;47463;49.884;10.010;2023-12-14T13:10:00;25.7;;;13.2;;
61570;SDS011;47463;49.884;10.010;2023-12-14T13:15:00;26;;;13.4;;
61570;SDS011;47463;49.884;10.010;2023-12-14T13:20:00;26;;;13.4;;
61570;SDS011;47463;49.884;10.010;2023-12-14T13:25:00;21.8;;;10.5;;
61570;SDS011;47463;49.884;10.010;2023-12-14T13:30:00;20;;;10.6;;
61570;SDS011;47463;49.884;10.010;2023-12-14T13:35:00;20.7;;;9.8;;
61570;SDS011;47463;49.884;10.010;2023-12-14T13:40:00;18.3;;;8.6;;
61570;SDS011;47463;49.884;10.010;2023-12-14T13:45:00;17.5;;;9.4;;
61570;SDS011;47463;49.884;10.010;2023-12-14T13:50:00;17.5;;;9.4;;
61570;SDS011;47463;49.884;10.010;2023-12-14T13:55:00;14.6;;;8.1;;
61570;SDS011;47463;49.884;10.010;2023-12-14T14:00:00;15.1;;;8.2;;
61570;SDS011;47463;49.884;10.010;2023-12-14T14:05:00;12.6;;;7.3;;
61570;SDS011;47463;49.884;10.010;2023-12-14T14:10:00;16.2;;;8.4;;
61570;SDS011;47463;49.884;10.010;2023-12-14T14:15:00;10.6;;;6;;
61570;SDS011;47463;49.884;10.010;2023-12-14T14:20:00;10.6;;;6;;
61570;SDS011;47463;49.884;10.010;2023-12-14T14:25:00;8.3;;;4.6;;
61570;SDS011;47463;49.884;10.010;2023-12-14T14:30:00;9.4;;;4.9;;
61570;SDS011;47463;49.884;10.010;2023-12-14T14:35:00;7;;;4.4;;
61570;SDS011;47463;49.884;10.010;2023-12-14T14:40:00;7.9;;;4.2;;
61570;SDS011;47463;49.884;10.010;2023-12-14T14:45:00;7.8;;;4;;
61570;SDS011;47463;49.884;10.010;2023-12-14T14:50:00;7.8;;;4;;
61570;SDS011;47463;49.884;10.010;2023-12-14T14:55:00;8.6;;;5.1;;
61570;SDS011;47463;49.884;10.010;2023-12-14T15:00:00;7.7;;;4.4;;
61570;SDS011;47463;49.884;10.010;2023-12-14T15:05:00;8.8;;;3.7;;
61570;SDS011;47463;49.884;10.010;2023-12-14T15:10:00;5;;;3.1;;
61570;SDS011;47463;49.884;10.010;2023-12-14T15:15:00;6.6;;;2.9;;
61570;SDS011;47463;49.884;10.010;2023-12-14T15:20:00;6.6;;;2.9;;
61570;SDS011;47463;49.884;10.010;2023-12-14T15:25:00;4.9;;;3.1;;
61570;SDS011;47463;49.884;10.010;2023-12-14T15:30:00;5;;;3.2;;
61570;SDS011;47463;49.884;10.010;2023-12-14T15:35:00;5.7;;;3;;
61570;SDS011;47463;49.884;10.010;2023-12-14T15:40:00;4.9;;;2.9;;
61570;SDS011;47463;49.884;10.010;2023-12-14T15:45:00;4.4;;;2.6;;
61570;SDS011;47463;49.884;10.010;2023-12-14T15:50:00;4.4;;;2.6;;
61570;SDS011;47463;49.884;10.010;2023-12-14T15:55:00;4;;;2.4;;
61570;SDS011;47463;49.884;10.010;2023-12-14T16:00:00;4.2;;;2.5;;
61570;SDS011;47463;49.884;10.010;2023-12-14T16:05:00;3.8;;;2.6;;
61570;SDS011;47463;49.884;10.010;2023-12-14T16:10:00;4.8;;;2.5;;
61570;SDS011;47463;49.884;10.010;2023-12-14T16:15:00;3.2;;;2.2;;
61570;SDS011;47463;49.884;10.010;2023-12-14T16:20:00;3.2;;;2.2;;
61570;SDS011;47463;49.884;10.010;2023-12-14T16:25:00;2.5;;;1.8;;
61570;SDS011;47463;49.884;10.010;2023-12-14T16:30:00;2.6;;;2;;
61570;SDS011;47463;49.884;10.010;2023-12-14T16:35:00;2.4;;;1.9;;
61570;SDS011;47463;49.884;10.010;2023-12-14T16:40:00;6.8;;;4.7;;
61570;SDS011;47463;49.884;10.010;2023-12-14T16:45:00;4.2;;;2.4;;
61570;SDS011;47463;49.884;10.010;2023-12-14T16:50:00;4.2;;;2.4;;
61570;SDS011;47463;49.884;10.010;2023-12-14T16:55:00;2.9;;;1.7;;
61570;SDS011;47463;49.884;10.010;2023-12-14T17:00:00;3.2;;;2;;
61570;SDS011;47463;49.884;10.010;2023-12-14T17:05:00;2.5;;;1.6;;
61570;SDS011;47463;49.884;10.010;2023-12-14T17:10:00;2.6;;;1.9;;
61570;SDS011;47463;49.884;10.010;2023-12-14T17:15:00;2.4;;;1.7;;
61570;SDS011;47463;49.884;10.010;2023-12-14T17:20:00;2.4;;;1.7;;
61570;SDS011;47463;49.884;10.010;2023-12-14T17:25:00;3.3;;;1.9;;
61570;SDS011;47463;49.884;10.010;2023-12-14T17:30:00;3.1;;;2.2;;
61570;SDS011;47463;49.884;10.010;2023-12-14T17:35:00;3.9;;;2.4;;
61570;SDS011;47463;49.884;10.010;2023-12-14T17:40:00;3.6;;;2.4;;
61570;SDS011;47463;49.884;10.010;2023-12-14T17:45:00;6.9;;;4.2;;
61570;SDS011;47463;49.884;10.010;2023-12-14T17:50:00;6.9;;;4.2;;
61570;SDS011;47463;49.884;10.010;2023-12-14T17:55:00;6.2;;;5;;
61570;SDS011;47463;49.884;10.010;2023-12-14T18:00:00;8.8;;;7.6;;
61570;SDS011;47463;49.884;10.010;2023-12-14T18:05:00;6.7;;;5.4;;
61570;SDS011;47463;49.884;10.010;2023-12-14T18:10:00;5.6;;;4.8;;
61570;SDS011;47463;49.884;10.010;2023-12-14T18:15:00;5.6;;;4.4;;
61570;SDS011;47463;49.884;10.010;2023-12-14T18:20:00;5.6;;;4.4;;
61570;SDS011;47463;49.884;10.010;2023-12-14T18:25:00;5.8;;;3.7;;
61570;SDS011;47463;49.884;10.010;2023-12-14T18:30:00;5.4;;;3.2;;
61570;SDS011;47463;49.884;10.010;2023-12-14T18:35:00;4.7;;;3.2;;
61570;SDS011;47463;49.884;10.010;2023-12-14T18:40:00;6.2;;;3.6;;
61570;SDS011;47463;49.884;10.010;2023-12-14T18:45:00;6.3;;;4.1;;
61570;SDS011;47463;49.884;10.010;2023-12-14T18:50:00;6.3;;;4.1;;
61570;SDS011;47463;49.884;10.010;2023-12-14T18:55:00;7.6;;;3.9;;
61570;SDS011;47463;49.884;10.010;2023-12-14T19:00:00;7.1;;;3.6;;
61570;SDS011;47463;49.884;10.010;2023-12-14T19:05:00;6.3;;;4.1;;
61570;SDS011;47463;49.884;10.010;2023-12-14T19:10:00;11.2;;;6.3;;
61570;SDS011;47463;49.884;10.010;2023-12-14T19:15:00;11.6;;;5.9;;
61570;SDS011;47463;49.884;10.010;2023-12-14T19:20:00;11.6;;;5.9;;
61570;SDS011;47463;49.884;10.010;2023-12-14T19:25:00;10.8;;;5.8;;
61570;SDS011;47463;49.884;10.010;2023-12-14T19:30:00;10.6;;;6.4;;
61570;SDS011;47463;49.884;10.010;2023-12-14T19:35:00;13;;;6.8;;
61570;SDS011;47463;49.884;10.010;2023-12-14T19:40:00;15.1;;;7.4;;
61570;SDS011;47463;49.884;10.010;2023-12-14T19:45:00;18.9;;;10;;
61570;SDS011;47463;49.884;10.010;2023-12-14T19:50:00;18.9;;;10;;
61570;SDS011;47463;49.884;10.010;2023-12-14T19:55:00;13;;;7.7;;
61570;SDS011;47463;49.884;10.010;2023-12-14T20:00:00;16.2;;;8.8;;
61570;SDS011;47463;49.884;10.010;2023-12-14T20:05:00;16.2;;;9.4;;
61570;SDS011;47463;49.884;10.010;2023-12-14T20:10:00;18;;;9.4;;
61570;SDS011;47463;49.884;10.010;2023-12-14T20:15:00;16;;;7.6;;
61570;SDS011;47463;49.884;10.010;2023-12-14T20:20:00;16;;;7.6;;
61570;SDS011;47463;49.884;10.010;2023-12-14T20:25:00;17.1;;;8.5;;
61570;SDS011;47463;49.884;10.010;2023-12-14T20:30:00;16.3;;;7.4;;
61570;SDS011;47463;49.884;10.010;2023-12-14T20:35:00;16.8;;;8.2;;
61570;SDS011;47463;49.884;10.010;2023-12-14T20:40:03;15.8;;;8.1;;
61570;SDS011;47463;49.884;10.010;2023-12-14T20:45:00;15.1;;;7.8;;
61570;SDS011;47463;49.884;10.010;2023-12-14T20:50:00;15.1;;;7.8;;
61570;SDS011;47463;49.884;10.010;2023-12-14T20:55:00;17.3;;;8.2;;
61570;SDS011;47463;49.884;10.010;2023-12-14T21:00:00;15.4;;;8.1;;
61570;SDS011;47463;49.884;10.010;2023-12-14T21:05:00;18.3;;;8.7;;
61570;SDS011;47463;49.884;10.010;2023-12-14T21:10:00;15.7;;;9.1;;
61570;SDS011;47463;49.884;10.010;2023-12-14T21:15:00;17;;;8.7;;
61570;SDS011;47463;49.884;10.010;2023-12-14T21:20:00;17;;;8.7;;
61570;SDS011;47463;49.884;10.010;2023-12-14T21:25:00;20.3;;;9.9;;
61570;SDS011;47463;49.884;10.010;2023-12-14T21:30:00;17.6;;;9.1;;
61570;SDS011;47463;49.884;10.010;2023-12-14T21:35:00;17.4;;;8.7;;
61570;SDS011;47463;49.884;10.010;2023-12-14T21:40:00;19.9;;;10.1;;
61570;SDS011;47463;49.884;10.010;2023-12-14T21:45:00;21;;;10.5;;
61570;SDS011;47463;49.884;10.010;2023-12-14T21:50:00;21;;;10.5;;
61570;SDS011;47463;49.884;10.010;2023-12-14T21:55:00;19.8;;;10.1;;
61570;SDS011;47463;49.884;10.010;2023-12-14T22:00:00;22.5;;;10.5;;
61570;SDS011;47463;49.884;10.010;2023-12-14T22:05:01;22.3;;;10.4;;
61570;SDS011;47463;49.884;10.010;2023-12-14T22:10:00;19.4;;;10.3;;
61570;SDS011;47463;49.884;10.010;2023-12-14T22:15:00;21.5;;;10.2;;
61570;SDS011;47463;49.884;10.010;2023-12-14T22:20:00;21.5;;;10.2;;
61570;SDS011;47463;49.884;10.010;2023-12-14T22:25:00;24.5;;;11.2;;
61570;SDS011;47463;49.884;10.010;2023-12-14T22:30:00;24;;;11.1;;
61570;SDS011;47463;49.884;10.010;2023-12-14T22:35:00;22.3;;;11.3;;
61570;SDS011;47463;49.884;10.010;2023-12-14T22:40:00;21.9;;;11.1;;
61570;SDS011;47463;49.884;10.010;2023-12-14T22:45:00;19.2;;;9.6;;
61570;SDS011;47463;49.884;10.010;2023-12-14T22:50:00;19.2;;;9.6;;
61570;SDS011;47463;49.884;10.010;2023-12-14T22:55:00;20.7;;;10.3;;
61570;SDS011;47463;49.884;10.010;2023-12-14T23:00:00;21.7;;;10.4;;
61570;SDS011;47463;49.884;10.010;2023-12-14T23:05:00;16.9;;;8.4;;
61570;SDS011;47463;49.884;10.010;2023-12-14T23:10:00;21.5;;;11;;
61570;SDS011;47463;49.884;10.010;2023-12-14T23:15:00;20.7;;;10.7;;
61570;SDS011;47463;49.884;10.010;2023-12-14T23:20:00;20.7;;;10.7;;
61570;SDS011;47463;49.884;10.010;2023-12-14T23:25:00;21.4;;;10.2;;
61570;SDS011;47463;49.884;10.010;2023-12-14T23:30:00;19;;;9;;
61570;SDS011;47463;49.884;10.010;2023-12-14T23:35:00;21.8;;;9.6;;
61570;SDS011;47463;49.884;10.010;2023-12-14T23:40:00;17.6;;;8.6;;
61570;SDS011;47463;49.884;10.010;2023-12-14T23:45:00;20.7;;;9.4;;
61570;SDS011;47463;49.884;10.010;2023-12-14T23:50:00;20.7;;;9.4;;
61570;SDS011;47463;49.884;10.010;2023-12-14T23:55:00;20.3;;;9.3;;
